Tunker, Indiana
Current Conditions -  °F | °C
As of 3:55 AM on Saturday 22 Nov 2014 (Local Time) from KHHG Reporting Station
Moderate Rain Moderate Rain  
Wind Chill: 25°   Ceiling: 1500
Heat Index: 32°   Visibility: 5mi
Dew Point: 25°   Wind: 8mph
Humidity: 74%   Direction: 200°SSW
Pressure: 30.21"   Gusts: NA
Location:  41.056°N, 85.6112°W
Report Text: KHHG 220855Z AUTO 20007KT 5SM RA OVC015 00/M04 A3021 RMK AO2 T00011041
Loading
Personal Weather Stations






























Interactive Weather Map New forecast layout! Learn more

10-Day Weather Forecast

Advertisements
Track Severe Weather on mobile